Christos Xli — SVA7812 — position and weather

sailwx.info

Track history (hours):
 
Tides and Currents Weather Stations Pressure Air Temp Water Temp Dewpoint Dewpoint Depression Visibility Wind Speed Wind Dir Waves Ship Positions

Christos Xli

Last reported at 2018-Feb-18 06:05 UTC. Time now 2018-Feb-18 18:43 UTC.
Position N 37°57' E 023°33'.

Length 34 m; draft 5.2 m.

Type: Tug. MMSI: 241567000.

Date/timePositionNaut miles runAvg speedWind from/ knotsBaromVisibWave heightAir tempDewpointWater temp
2018-Feb-18 06:05N 37°57' E 023°33'0 0.0
2018-Feb-18 05:59N 37°57' E 023°33'0 0.0
2018-Feb-18 05:26N 37°57' E 023°33'0 0.0
2018-Feb-18 04:59N 37°57' E 023°33'0 0.0
2018-Feb-18 04:29N 37°57' E 023°33'0 0.0
2018-Feb-18 03:59N 37°57' E 023°33'0 0.0
2018-Feb-18 03:29N 37°57' E 023°33'0 0.0
2018-Feb-18 02:59N 37°57' E 023°33'0 0.0
2018-Feb-18 02:28N 37°57' E 023°33'0 0.0
2018-Feb-18 01:58N 37°57' E 023°33'2 4.7
2018-Feb-18 01:30N 37°57' E 023°36'1 1.0
2018-Feb-18 01:00N 37°57' E 023°36'1 1.4
2018-Feb-18 00:30N 37°56' E 023°36'1 1.7
2018-Feb-17 23:59N 37°57' E 023°36'0 0.0
2018-Feb-17 23:29N 37°57' E 023°36'0 0.0
2018-Feb-17 22:59N 37°57' E 023°36'0 0.0
2018-Feb-17 22:29N 37°57' E 023°36'0 0.0
2018-Feb-17 21:59N 37°57' E 023°36'0 0.0
2018-Feb-17 21:29N 37°57' E 023°36'1 1.2
2018-Feb-17 20:59N 37°57' E 023°35'0 0.5
2018-Feb-17 20:30N 37°57' E 023°35'2 3.6
2018-Feb-17 20:00N 37°57' E 023°33'0 0.0
2018-Feb-17 19:30N 37°57' E 023°33'0 0.0
2018-Feb-17 19:00N 37°57' E 023°33'0 0.0
2018-Feb-17 18:30N 37°57' E 023°33'0 0.0
2018-Feb-17 18:00N 37°57' E 023°33'0 0.0
2018-Feb-17 17:30N 37°57' E 023°33'0 0.0
2018-Feb-17 17:00N 37°57' E 023°33'0 0.0
2018-Feb-17 16:30N 37°57' E 023°33'0 0.0
2018-Feb-17 16:00N 37°57' E 023°33'0 0.0
2018-Feb-17 15:30N 37°57' E 023°33'0 0.0
2018-Feb-17 14:57N 37°57' E 023°33'0 0.0
2018-Feb-17 14:30N 37°57' E 023°33'0 0.0
2018-Feb-16 19:03N 37°57' E 023°33'0 0.2
2018-Feb-16 19:00N 37°57' E 023°33'3 6.7
2018-Feb-16 18:30N 38°00' E 023°34'2 3.7
2018-Feb-16 17:58N 38°01' E 023°36'0 0.2
2018-Feb-16 17:30N 38°01' E 023°36'0 1.0
2018-Feb-16 17:00N 38°01' E 023°35'0 0.3
2018-Feb-16 16:30N 38°01' E 023°35'0 0.9
2018-Feb-16 15:59N 38°01' E 023°35'0 0.0
2018-Feb-16 15:28N 38°01' E 023°35'0 0.4
2018-Feb-16 15:00N 38°01' E 023°35'4 8.0
2018-Feb-16 14:30N 37°58' E 023°33'1 0.0
2018-Feb-15 18:22N 37°57' E 023°33'2 5.1
2018-Feb-15 18:00N 37°57' E 023°35'0 0.4
2018-Feb-15 17:29N 37°57' E 023°35'2 4.7
2018-Feb-15 17:00N 37°55' E 023°35'0 0.3
2018-Feb-15 16:30N 37°55' E 023°35'1 1.9
2018-Feb-15 16:00N 37°56' E 023°35'2 3.2
2018-Feb-15 15:30N 37°57' E 023°35'1 1.4
2018-Feb-15 15:00N 37°57' E 023°35'1 1.5
2018-Feb-15 14:28N 37°57' E 023°36'1 1.3
2018-Feb-15 14:00N 37°57' E 023°35'1 1.4
2018-Feb-15 13:30N 37°57' E 023°34'4 6.9
2018-Feb-15 13:00N 38°01' E 023°34'2 2.9
2018-Feb-15 12:28N 38°02' E 023°36'0 0.9
2018-Feb-15 12:00N 38°02' E 023°35'4 8.6
2018-Feb-15 11:30N 37°58' E 023°33'1 1.1
2018-Feb-15 10:58N 37°57' E 023°33'0 0.0
2018-Feb-15 10:28N 37°57' E 023°33'0 0.0
2018-Feb-15 09:58N 37°57' E 023°33'0 0.0
2018-Feb-15 09:28N 37°57' E 023°33'0 0.0
2018-Feb-15 08:58N 37°57' E 023°33'0 0.0
2018-Feb-15 08:28N 37°57' E 023°33'0 0.0
2018-Feb-15 07:58N 37°57' E 023°33'0 0.0
2018-Feb-15 07:28N 37°57' E 023°33'0 0.0
2018-Feb-15 06:58N 37°57' E 023°33'0 0.0
2018-Feb-15 06:25N 37°57' E 023°33'0 0.0
2018-Feb-15 05:58N 37°57' E 023°33'0 0.0
2018-Feb-15 05:28N 37°57' E 023°33'0 0.0
2018-Feb-15 04:58N 37°57' E 023°33'0 0.0
2018-Feb-15 04:25N 37°57' E 023°33'0 0.0
2018-Feb-14 15:57N 37°57' E 023°33'2 3.9
2018-Feb-14 15:28N 37°57' E 023°35'0 1.0
2018-Feb-14 15:01N 37°57' E 023°35'2 3.0
2018-Feb-14 14:28N 37°55' E 023°35'2 3.4
2018-Feb-14 14:01N 37°57' E 023°35'1 2.1
2018-Feb-14 13:26N 37°57' E 023°37'0 0.0
2018-Feb-14 12:59N 37°57' E 023°37'0 0.0
2018-Feb-14 12:29N 37°57' E 023°37'0 0.0
2018-Feb-14 11:59N 37°57' E 023°37'0 0.0
2018-Feb-14 11:29N 37°57' E 023°37'0 0.0
2018-Feb-14 10:59N 37°57' E 023°37'0 0.2
2018-Feb-14 10:31N 37°57' E 023°37'2 4.2
2018-Feb-14 09:58N 37°58' E 023°34'0 0.1
2018-Feb-14 09:30N 37°58' E 023°34'0 0.0
2018-Feb-14 08:59N 37°58' E 023°34'0 0.8
2018-Feb-14 08:30N 37°57' E 023°33'0 0.3
2018-Feb-14 07:59N 37°57' E 023°33'0 0.0
2018-Feb-14 07:28N 37°57' E 023°33'0 0.6
2018-Feb-14 07:00N 37°57' E 023°33'0 0.0
2018-Feb-14 06:30N 37°57' E 023°33'0 0.6
2018-Feb-14 05:59N 37°57' E 023°33'0 0.0
2018-Feb-14 05:29N 37°57' E 023°33'0 0.0
2018-Feb-13 14:52N 37°57' E 023°33'1 3.3
2018-Feb-13 14:31N 37°56' E 023°34'5 9.2
2018-Feb-13 14:00N 37°53' E 023°30'4 8.9
2018-Feb-13 13:30N 37°52' E 023°24'5 9.0
2018-Feb-13 13:00N 37°52' E 023°19'5 9.2
2018-Feb-13 12:30N 37°53' E 023°13'5 9.2
2018-Feb-13 12:01N 37°53' E 023°07'5 9.1
2018-Feb-13 11:30N 37°55' E 023°02'3 5.5
2018-Feb-13 10:53N 37°57' E 022°58'1 3.8
2018-Feb-13 10:30N 37°58' E 022°57'4 7.3
2018-Feb-13 10:00N 37°59' E 022°53'5 9.2
2018-Feb-13 09:30N 38°02' E 022°48'5 9.4
2018-Feb-13 09:00N 38°04' E 022°42'  
2018-Feb-08 13:30N 37°53' E 023°09'9 9.0
2018-Feb-08 12:30N 37°53' E 023°20'9 8.7
2018-Feb-08 11:30N 37°53' E 023°31'5 9.0
2018-Feb-08 11:00N 37°57' E 023°35'1 2.4
2018-Feb-08 10:30N 37°58' E 023°34'0 0.0
2018-Feb-08 10:00N 37°58' E 023°34'1 0.7
2018-Feb-08 09:00N 37°57' E 023°33'0 0.0
2018-Feb-08 08:30N 37°57' E 023°33'0 0.0
2018-Feb-08 08:00N 37°57' E 023°33'0 0.0
2018-Feb-08 07:00N 37°57' E 023°33'0 0.0
2018-Feb-08 06:30N 37°57' E 023°33'  
Track history (hours):
 
Tides and Currents Weather Stations Pressure Air Temp Water Temp Dewpoint Dewpoint Depression Visibility Wind Speed Wind Dir Waves Ship Positions

Christos Xli

Last reported at 2018-Feb-18 06:05 UTC. Time now 2018-Feb-18 18:43 UTC.
Position N 37°57' E 023°33'.

Length 34 m; draft 5.2 m.

Type: Tug. MMSI: 241567000.

Date/timePositionNaut miles runAvg speedWind from/ knotsBaromVisibWave heightAir tempDewpointWater temp
2018-Feb-18 06:05N 37°57' E 023°33'0 0.0
2018-Feb-18 05:59N 37°57' E 023°33'0 0.0
2018-Feb-18 05:26N 37°57' E 023°33'0 0.0
2018-Feb-18 04:59N 37°57' E 023°33'0 0.0
2018-Feb-18 04:29N 37°57' E 023°33'0 0.0
2018-Feb-18 03:59N 37°57' E 023°33'0 0.0
2018-Feb-18 03:29N 37°57' E 023°33'0 0.0
2018-Feb-18 02:59N 37°57' E 023°33'0 0.0
2018-Feb-18 02:28N 37°57' E 023°33'0 0.0
2018-Feb-18 01:58N 37°57' E 023°33'2 4.7
2018-Feb-18 01:30N 37°57' E 023°36'1 1.0
2018-Feb-18 01:00N 37°57' E 023°36'1 1.4
2018-Feb-18 00:30N 37°56' E 023°36'1 1.7
2018-Feb-17 23:59N 37°57' E 023°36'0 0.0
2018-Feb-17 23:29N 37°57' E 023°36'0 0.0
2018-Feb-17 22:59N 37°57' E 023°36'0 0.0
2018-Feb-17 22:29N 37°57' E 023°36'0 0.0
2018-Feb-17 21:59N 37°57' E 023°36'0 0.0
2018-Feb-17 21:29N 37°57' E 023°36'1 1.2
2018-Feb-17 20:59N 37°57' E 023°35'0 0.5
2018-Feb-17 20:30N 37°57' E 023°35'2 3.6
2018-Feb-17 20:00N 37°57' E 023°33'0 0.0
2018-Feb-17 19:30N 37°57' E 023°33'0 0.0
2018-Feb-17 19:00N 37°57' E 023°33'0 0.0
2018-Feb-17 18:30N 37°57' E 023°33'0 0.0
2018-Feb-17 18:00N 37°57' E 023°33'0 0.0
2018-Feb-17 17:30N 37°57' E 023°33'0 0.0
2018-Feb-17 17:00N 37°57' E 023°33'0 0.0
2018-Feb-17 16:30N 37°57' E 023°33'0 0.0
2018-Feb-17 16:00N 37°57' E 023°33'0 0.0
2018-Feb-17 15:30N 37°57' E 023°33'0 0.0
2018-Feb-17 14:57N 37°57' E 023°33'0 0.0
2018-Feb-17 14:30N 37°57' E 023°33'0 0.0
2018-Feb-16 19:03N 37°57' E 023°33'0 0.2
2018-Feb-16 19:00N 37°57' E 023°33'3 6.7
2018-Feb-16 18:30N 38°00' E 023°34'2 3.7
2018-Feb-16 17:58N 38°01' E 023°36'0 0.2
2018-Feb-16 17:30N 38°01' E 023°36'0 1.0
2018-Feb-16 17:00N 38°01' E 023°35'0 0.3
2018-Feb-16 16:30N 38°01' E 023°35'0 0.9
2018-Feb-16 15:59N 38°01' E 023°35'0 0.0
2018-Feb-16 15:28N 38°01' E 023°35'0 0.4
2018-Feb-16 15:00N 38°01' E 023°35'4 8.0
2018-Feb-16 14:30N 37°58' E 023°33'1 0.0
2018-Feb-15 18:22N 37°57' E 023°33'2 5.1
2018-Feb-15 18:00N 37°57' E 023°35'0 0.4
2018-Feb-15 17:29N 37°57' E 023°35'2 4.7
2018-Feb-15 17:00N 37°55' E 023°35'0 0.3
2018-Feb-15 16:30N 37°55' E 023°35'1 1.9
2018-Feb-15 16:00N 37°56' E 023°35'2 3.2
2018-Feb-15 15:30N 37°57' E 023°35'1 1.4
2018-Feb-15 15:00N 37°57' E 023°35'1 1.5
2018-Feb-15 14:28N 37°57' E 023°36'1 1.3
2018-Feb-15 14:00N 37°57' E 023°35'1 1.4
2018-Feb-15 13:30N 37°57' E 023°34'4 6.9
2018-Feb-15 13:00N 38°01' E 023°34'2 2.9
2018-Feb-15 12:28N 38°02' E 023°36'0 0.9
2018-Feb-15 12:00N 38°02' E 023°35'4 8.6
2018-Feb-15 11:30N 37°58' E 023°33'1 1.1
2018-Feb-15 10:58N 37°57' E 023°33'0 0.0
2018-Feb-15 10:28N 37°57' E 023°33'0 0.0
2018-Feb-15 09:58N 37°57' E 023°33'0 0.0
2018-Feb-15 09:28N 37°57' E 023°33'0 0.0
2018-Feb-15 08:58N 37°57' E 023°33'0 0.0
2018-Feb-15 08:28N 37°57' E 023°33'0 0.0
2018-Feb-15 07:58N 37°57' E 023°33'0 0.0
2018-Feb-15 07:28N 37°57' E 023°33'0 0.0
2018-Feb-15 06:58N 37°57' E 023°33'0 0.0
2018-Feb-15 06:25N 37°57' E 023°33'0 0.0
2018-Feb-15 05:58N 37°57' E 023°33'0 0.0
2018-Feb-15 05:28N 37°57' E 023°33'0 0.0
2018-Feb-15 04:58N 37°57' E 023°33'0 0.0
2018-Feb-15 04:25N 37°57' E 023°33'0 0.0
2018-Feb-14 15:57N 37°57' E 023°33'2 3.9
2018-Feb-14 15:28N 37°57' E 023°35'0 1.0
2018-Feb-14 15:01N 37°57' E 023°35'2 3.0
2018-Feb-14 14:28N 37°55' E 023°35'2 3.4
2018-Feb-14 14:01N 37°57' E 023°35'1 2.1
2018-Feb-14 13:26N 37°57' E 023°37'0 0.0
2018-Feb-14 12:59N 37°57' E 023°37'0 0.0
2018-Feb-14 12:29N 37°57' E 023°37'0 0.0
2018-Feb-14 11:59N 37°57' E 023°37'0 0.0
2018-Feb-14 11:29N 37°57' E 023°37'0 0.0
2018-Feb-14 10:59N 37°57' E 023°37'0 0.2
2018-Feb-14 10:31N 37°57' E 023°37'2 4.2
2018-Feb-14 09:58N 37°58' E 023°34'0 0.1
2018-Feb-14 09:30N 37°58' E 023°34'0 0.0
2018-Feb-14 08:59N 37°58' E 023°34'0 0.8
2018-Feb-14 08:30N 37°57' E 023°33'0 0.3
2018-Feb-14 07:59N 37°57' E 023°33'0 0.0
2018-Feb-14 07:28N 37°57' E 023°33'0 0.6
2018-Feb-14 07:00N 37°57' E 023°33'0 0.0
2018-Feb-14 06:30N 37°57' E 023°33'0 0.6
2018-Feb-14 05:59N 37°57' E 023°33'0 0.0
2018-Feb-14 05:29N 37°57' E 023°33'0 0.0
2018-Feb-13 14:52N 37°57' E 023°33'1 3.3
2018-Feb-13 14:31N 37°56' E 023°34'5 9.2
2018-Feb-13 14:00N 37°53' E 023°30'4 8.9
2018-Feb-13 13:30N 37°52' E 023°24'5 9.0
2018-Feb-13 13:00N 37°52' E 023°19'5 9.2
2018-Feb-13 12:30N 37°53' E 023°13'5 9.2
2018-Feb-13 12:01N 37°53' E 023°07'5 9.1
2018-Feb-13 11:30N 37°55' E 023°02'3 5.5
2018-Feb-13 10:53N 37°57' E 022°58'1 3.8
2018-Feb-13 10:30N 37°58' E 022°57'4 7.3
2018-Feb-13 10:00N 37°59' E 022°53'5 9.2
2018-Feb-13 09:30N 38°02' E 022°48'5 9.4
2018-Feb-13 09:00N 38°04' E 022°42'  
2018-Feb-08 13:30N 37°53' E 023°09'9 9.0
2018-Feb-08 12:30N 37°53' E 023°20'9 8.7
2018-Feb-08 11:30N 37°53' E 023°31'5 9.0
2018-Feb-08 11:00N 37°57' E 023°35'1 2.4
2018-Feb-08 10:30N 37°58' E 023°34'0 0.0
2018-Feb-08 10:00N 37°58' E 023°34'1 0.7
2018-Feb-08 09:00N 37°57' E 023°33'0 0.0
2018-Feb-08 08:30N 37°57' E 023°33'0 0.0
2018-Feb-08 08:00N 37°57' E 023°33'0 0.0
2018-Feb-08 07:00N 37°57' E 023°33'0 0.0
2018-Feb-08 06:30N 37°57' E 023°33'  

Dump ship's entire track history